Data for 03/28/2014

Time Sea-Level Adjusted Pressure Absolute Pressure Temperature Relative Humidity Dew Point   
(mb) (inHg) (mb) (inHg) (C) (F) (%) (C) (F)
00:05 1012 29.88 841 24.83 -2.1 28.2 91 -3.4 25.8
00:10 1012 29.88 841 24.83 -2.2 28 90 -3.6 25.5
00:15 1012 29.88 841 24.83 -2.5 27.5 90 -3.9 25
00:20 1012 29.88 841 24.83 -2.3 27.9 91 -3.6 25.5
00:25 1012 29.88 841 24.83 -1.7 28.9 90 -3.1 26.4
00:30 1012 29.88 841 24.83 -1.5 29.3 90 -3 26.7
00:35 1012 29.88 841 24.83 -1.5 29.3 90 -3 26.6
00:40 1012 29.88 841 24.83 -1.5 29.4 87 -3.3 26
00:45 1012 29.88 841 24.83 -1.4 29.4 87 -3.4 25.9
00:50 1012 29.88 841 24.83 -1.6 29.2 85 -3.7 25.3
00:55 1012 29.88 841 24.83 -1.7 28.9 85 -4 24.9
01:00 1012 29.88 841 24.83 -1.8 28.7 85 -4 24.8
01:05 1012 29.88 841 24.83 -1.8 28.8 85 -4.1 24.7
01:10 1012 29.88 842 24.86 -1.8 28.7 84 -4.1 24.5
01:15 1012 29.88 842 24.86 -1.9 28.6 84 -4.2 24.4
01:20 1012 29.88 842 24.86 -1.9 28.6 84 -4.3 24.2
01:25 1012 29.88 842 24.86 -1.9 28.6 85 -4.1 24.6
01:30 1013 29.91 842 24.86 -1.9 28.6 84 -4.2 24.5
01:35 1013 29.91 842 24.86 -2 28.5 84 -4.3 24.3
01:40 1013 29.91 842 24.86 -2 28.4 85 -4.3 24.3
01:45 1013 29.91 842 24.86 -2 28.4 84 -4.3 24.3
01:50 1013 29.91 842 24.86 -2 28.3 85 -4.3 24.3
01:55 1013 29.91 842 24.86 -2.1 28.1 86 -4.2 24.4
02:00 1013 29.91 842 24.86 -2.1 28.2 87 -4 24.9
02:05 1013 29.91 842 24.86 -2.2 28.1 87 -4.1 24.7
02:10 1013 29.91 842 24.86 -2.3 27.9 88 -4.1 24.7
02:15 1013 29.91 842 24.86 -2.3 27.9 88 -4.1 24.7
02:20 1013 29.91 842 24.86 -2.3 27.8 88 -4.1 24.6
02:25 1013 29.91 842 24.86 -2.4 27.7 89 -4 24.8
02:30 1013 29.91 842 24.86 -2.5 27.6 90 -3.9 24.9
02:35 1013 29.91 842 24.86 -2.5 27.6 89 -4.1 24.6
02:40 1013 29.91 842 24.86 -2.5 27.6 88 -4.2 24.4
02:45 1013 29.91 842 24.86 -2.5 27.6 85 -4.6 23.7
02:50 1013 29.91 842 24.86 -2.2 28 84 -4.5 23.9
02:55 1013 29.91 842 24.86 -2.2 28.1 86 -4.1 24.5
03:00 1013 29.91 842 24.86 -2.1 28.2 87 -4 24.9
03:05 1013 29.91 842 24.86 -2 28.3 88 -3.7 25.3
03:10 1013 29.91 842 24.86 -2 28.4 88 -3.7 25.3
03:15 1013 29.91 842 24.86 -2 28.5 86 -3.9 24.9
03:20 1013 29.91 842 24.86 -1.9 28.5 85 -4.1 24.6
03:25 1013 29.91 842 24.86 -2 28.4 85 -4.3 24.3
03:30 1013 29.91 842 24.86 -2 28.3 85 -4.2 24.5
03:35 1013 29.91 842 24.86 -2.3 27.9 87 -4.2 24.4
03:40 1013 29.91 842 24.86 -2.4 27.6 87 -4.3 24.2
03:45 1013 29.91 843 24.89 -2.5 27.5 88 -4.3 24.3
03:50 1013 29.91 843 24.89 -2.5 27.5 88 -4.2 24.5
03:55 1014 29.94 843 24.89 -2.4 27.6 88 -4.2 24.5
04:00 1014 29.94 843 24.89 -2.3 27.9 87 -4.1 24.7
04:05 1014 29.94 843 24.89 -2.1 28.2 86 -4.1 24.6
04:10 1014 29.94 843 24.89 -1.9 28.6 85 -4 24.7
04:15 1014 29.94 843 24.89 -1.9 28.6 86 -3.9 25
04:20 1014 29.94 843 24.89 -1.9 28.5 86 -3.9 24.9
04:25 1014 29.94 843 24.89 -2 28.5 86 -4 24.8
04:30 1014 29.94 843 24.89 -1.9 28.5 89 -3.6 25.5
04:35 1014 29.94 843 24.89 -1.7 29 85 -3.8 25.2
04:40 1014 29.94 843 24.89 -1.9 28.5 85 -4.2 24.4
04:45 1014 29.94 843 24.89 -2.3 27.8 85 -4.5 23.9
04:50 1014 29.94 843 24.89 -2.6 27.4 86 -4.6 23.6
04:55 1014 29.94 843 24.89 -2.5 27.5 86 -4.5 23.8
05:00 1014 29.94 843 24.89 -2.4 27.7 86 -4.4 24.1
05:05 1014 29.94 843 24.89 -2.4 27.8 87 -4.3 24.3
05:10 1014 29.94 843 24.89 -2.4 27.6 88 -4.1 24.6
05:15 1014 29.94 843 24.89 -2.8 26.9 89 -4.4 24.1
05:20 1014 29.94 843 24.89 -2.8 27 88 -4.4 24
05:25 1014 29.94 844 24.92 -2.6 27.3 86 -4.6 23.8
05:30 1014 29.94 844 24.92 -2.1 28.2 83 -4.6 23.7
05:35 1015 29.97 844 24.92 -1.8 28.8 83 -4.3 24.3
05:40 1015 29.97 844 24.92 -1.7 28.9 84 -4 24.8
05:45 1015 29.97 844 24.92 -1.7 29 82 -4.4 24.1
05:50 1015 29.97 844 24.92 -1.4 29.4 78 -4.7 23.5
05:55 1015 29.97 844 24.92 -1.2 29.8 74 -5.3 22.5
06:00 1015 29.97 844 24.92 -1 30.2 74 -5 22.9
06:05 1015 29.97 844 24.92 -1.1 30.1 74 -5 22.9
06:10 1015 29.97 844 24.92 -1.1 30 75 -5 23.1
06:15 1015 29.97 844 24.92 -1.2 29.9 76 -4.8 23.3
06:20 1015 29.97 844 24.92 -1.2 29.8 75 -5 23
06:25 1015 29.97 844 24.92 -1.2 29.8 75 -5.1 22.8
06:30 1015 29.97 844 24.92 -1.2 29.9 75 -5 22.9
06:35 1015 29.97 844 24.92 -1.2 29.8 75 -5.2 22.7
06:40 1015 29.97 844 24.92 -1.2 29.8 75 -5.2 22.7
06:45 1015 29.97 845 24.95 -1.2 29.9 81 -4.1 24.6
06:50 1015 29.97 845 24.95 -1.4 29.5 81 -4.3 24.2
06:55 1015 29.97 845 24.95 -1.5 29.4 78 -4.8 23.4
07:00 1015 29.97 845 24.95 -1.1 29.9 74 -5.2 22.6
07:05 1015 29.97 845 24.95 -0.7 30.7 71 -5.3 22.5
07:10 1015 29.97 845 24.95 -0.7 30.7 72 -5.2 22.6
07:15 1015 29.97 845 24.95 -0.4 31.3 70 -5.2 22.6
07:20 1015 29.97 845 24.95 -0.2 31.7 67 -5.5 22.1
07:25 1016 30 845 24.95 0.2 32.4 68 -5 22.9
07:30 1016 30 845 24.95 0.6 33.1 70 -4.3 24.3
07:35 1016 30 845 24.95 0.6 33.1 71 -4 24.9
07:40 1016 30 845 24.95 0.5 32.9 78 -2.8 26.9
07:45 1016 30 845 24.95 0.3 32.5 79 -2.9 26.8
07:50 1016 30 845 24.95 -0 32 73 -4.2 24.4
07:55 1016 30 845 24.95 0.1 32.3 68 -5 23
08:00 1016 30 845 24.95 0.4 32.7 68 -4.9 23.2
08:05 1016 30 845 24.95 0.6 33 67 -4.9 23.1
08:10 1016 30 845 24.95 0.6 33.1 66 -4.9 23.2
08:15 1016 30 845 24.95 0.8 33.4 68 -4.5 23.9
08:20 1016 30 845 24.95 1 33.8 66 -4.6 23.7
08:25 1016 30 846 24.98 1.1 34 64 -4.9 23.2
08:30 1016 30 846 24.98 1.2 34.2 65 -4.6 23.8
08:35 1016 30 846 24.98 1.5 34.6 64 -4.6 23.7
08:40 1016 30 846 24.98 1.7 35.1 61 -5 23
08:45 1016 30 846 24.98 1.7 35 60 -5.2 22.6
08:50 1016 30 846 24.98 1.4 34.4 60 -5.5 22.1
08:55 1016 30 846 24.98 1.3 34.3 60 -5.6 21.9
09:00 1016 30 846 24.98 1.5 34.6 61 -5.2 22.6
09:05 1016 30 846 24.98 1.5 34.7 60 -5.3 22.4
09:10 1016 30 846 24.98 1.7 35.1 60 -5.2 22.6
09:15 1016 30 846 24.98 2 35.6 60 -4.9 23.2
09:20 1017 30.03 846 24.98 2.1 35.7 59 -5 22.9
09:25 1017 30.03 846 24.98 1.9 35.4 58 -5.4 22.3
09:30 1017 30.03 846 24.98 1.9 35.4 56 -5.9 21.5
09:35 1017 30.03 846 24.98 1.9 35.4 58 -5.6 21.9
09:40 1017 30.03 846 24.98 3 37.4 52 -5.9 21.4
09:45 1017 30.03 846 24.98 3.5 38.2 53 -5.3 22.4
09:50 1017 30.03 846 24.98 3 37.3 54 -5.6 22
09:55 1017 30.03 846 24.98 2.9 37.2 48 -7 19.5
10:00 1017 30.03 846 24.98 3.5 38.4 48 -6.4 20.4
10:05 1017 30.03 846 24.98 3.6 38.5 47 -6.8 19.8
10:10 1017 30.03 846 24.98 3.9 39.1 44 -7.2 19.1
10:15 1017 30.03 846 24.98 3.8 38.8 45 -7 19.5
10:20 1017 30.03 846 24.98 3.5 38.3 46 -7 19.4
10:25 1017 30.03 846 24.98 3.6 38.4 44 -7.5 18.5
10:30 1017 30.03 846 24.98 3.7 38.7 46 -6.7 19.9
10:35 1017 30.03 846 24.98 4 39.2 46 -6.5 20.3
10:40 1017 30.03 846 24.98 4.2 39.6 44 -7 19.5
10:45 1017 30.03 846 24.98 4.7 40.5 44 -6.6 20.1
10:50 1017 30.03 846 24.98 5.6 42.1 39 -7.3 18.9
10:55 1017 30.03 846 24.98 5.5 41.9 41 -6.9 19.6
11:00 1017 30.03 846 24.98 5.5 41.8 39 -7.5 18.6
11:05 1017 30.03 846 24.98 5.3 41.6 39 -7.5 18.5
11:10 1017 30.03 846 24.98 5.2 41.4 37 -8.3 17.1
11:15 1017 30.03 846 24.98 5.5 41.9 38 -7.9 17.8
11:20 1017 30.03 846 24.98 5.3 41.6 42 -6.7 19.9
11:25 1017 30.03 846 24.98 5.4 41.7 39 -7.6 18.3
11:30 1017 30.03 846 24.98 6.2 43.2 36 -7.8 18
11:35 1017 30.03 846 24.98 6.6 43.9 35 -7.9 17.8
11:40 1017 30.03 846 24.98 6.2 43.2 35 -8.2 17.2
11:45 1017 30.03 846 24.98 6.3 43.4 34 -8.2 17.2
11:50 1017 30.03 846 24.98 6.3 43.4 32 -9.1 15.7
11:55 1017 30.03 846 24.98 6.1 43 35 -8.1 17.4
12:00 1017 30.03 846 24.98 6.3 43.4 34 -8.5 16.7
12:05 1017 30.03 846 24.98 6.7 44 35 -7.7 18.1
12:10 1017 30.03 846 24.98 6.7 44.1 34 -8.2 17.3
12:15 1016 30 846 24.98 6.6 43.8 33 -8.7 16.3
12:20 1016 30 846 24.98 6.9 44.4 31 -9.1 15.6
12:25 1016 30 846 24.98 7.3 45.1 32 -8.2 17.3
12:30 1016 30 846 24.98 7.2 44.9 30 -9.4 15.1
12:35 1016 30 845 24.95 6.1 43 32 -9.3 15.2
12:40 1016 30 845 24.95 6.3 43.3 32 -9.4 15
12:45 1016 30 845 24.95 6.5 43.7 32 -9.1 15.6
12:50 1016 30 845 24.95 6.5 43.6 32 -9.2 15.5
12:55 1016 30 845 24.95 6.5 43.7 33 -8.5 16.6
13:00 1016 30 845 24.95 6.9 44.5 31 -9 15.8
13:05 1016 30 845 24.95 7.1 44.7 29 -9.9 14.1
13:10 1016 30 845 24.95 7.2 44.9 34 -7.7 18.2
13:15 1016 30 845 24.95 8 46.5 29 -9.2 15.5
13:20 1016 30 845 24.95 7.3 45.1 30 -9.3 15.3
13:25 1016 30 845 24.95 7.5 45.5 30 -8.8 16.1
13:30 1016 30 845 24.95 7.2 44.9 30 -9.1 15.7
13:35 1016 30 845 24.95 7.2 45 32 -8.4 16.8
13:40 1016 30 845 24.95 7.3 45.2 28 -10.2 13.7
13:45 1016 30 845 24.95 7 44.6 29 -10 14
13:50 1016 30 845 24.95 7.4 45.2 29 -9.7 14.5
13:55 1016 30 845 24.95 7.4 45.4 29 -9.3 15.3
14:00 1016 30 845 24.95 7.8 46 28 -9.5 14.9
14:05 1016 30 845 24.95 7.7 45.8 28 -9.6 14.8
14:10 1016 30 845 24.95 7.5 45.4 28 -10.1 13.8
14:15 1016 30 845 24.95 7.6 45.6 27 -10.2 13.7
14:20 1016 30 845 24.95 7.8 46.1 30 -8.9 16.1
14:25 1016 30 845 24.95 8.5 47.2 29 -8.7 16.4
14:30 1016 30 845 24.95 7.9 46.3 32 -7.6 18.4
14:35 1015 29.97 845 24.95 8 46.5 30 -8.6 16.5
14:40 1015 29.97 845 24.95 8.4 47.2 29 -8.6 16.5
14:45 1015 29.97 845 24.95 8.5 47.3 28 -8.8 16.1
14:50 1015 29.97 845 24.95 8.6 47.6 29 -8.3 17.1
14:55 1015 29.97 845 24.95 8.7 47.7 26 -9.6 14.7
15:00 1015 29.97 845 24.95 8.5 47.3 24 -10.7 12.7
15:05 1015 29.97 845 24.95 8.4 47 26 -10.3 13.5
15:10 1015 29.97 844 24.92 7.8 46.1 28 -9.4 15.1
15:15 1015 29.97 844 24.92 8 46.5 26 -10.1 13.8
15:20 1015 29.97 844 24.92 8.4 47.1 27 -9.4 15.1
15:25 1015 29.97 844 24.92 8.7 47.7 27 -9.2 15.5
15:30 1015 29.97 844 24.92 7.8 46.1 31 -8.3 17
15:35 1015 29.97 844 24.92 7.2 45 33 -8.1 17.4
15:40 1015 29.97 844 24.92 7.2 45 32 -8.3 17
15:45 1015 29.97 844 24.92 7.8 46 30 -8.8 16.2
15:50 1015 29.97 844 24.92 7.7 45.9 31 -8.2 17.3
15:55 1015 29.97 844 24.92 7.8 46.1 28 -9.6 14.7
16:00 1015 29.97 844 24.92 8.2 46.7 29 -8.7 16.3
16:05 1015 29.97 844 24.92 8.4 47.1 28 -8.9 16
16:10 1015 29.97 844 24.92 8.6 47.4 27 -9.6 14.8
16:15 1015 29.97 844 24.92 8.4 47 28 -9.2 15.5
16:20 1015 29.97 844 24.92 8.2 46.8 29 -8.7 16.4
16:25 1015 29.97 844 24.92 8.3 46.9 29 -8.7 16.3
16:30 1015 29.97 844 24.92 7.9 46.3 32 -7.6 18.3
16:35 1015 29.97 844 24.92 7.9 46.2 31 -8.2 17.3
16:40 1015 29.97 844 24.92 7.8 46 33 -7.7 18.2
16:45 1015 29.97 844 24.92 7.7 45.8 31 -8.4 16.8
16:50 1015 29.97 844 24.92 8.1 46.5 30 -8.4 16.8
16:55 1015 29.97 844 24.92 7.7 45.8 34 -7.3 18.8
17:00 1015 29.97 844 24.92 7.4 45.3 31 -8.6 16.5
17:05 1015 29.97 844 24.92 7.5 45.5 32 -8.2 17.2
17:10 1015 29.97 844 24.92 7.4 45.3 30 -8.9 15.9
17:15 1015 29.97 844 24.92 7.5 45.5 31 -8.5 16.7
17:20 1015 29.97 844 24.92 7.3 45.2 33 -8.1 17.4
17:25 1015 29.97 844 24.92 7.3 45.1 34 -7.6 18.4
17:30 1015 29.97 844 24.92 7.3 45.1 32 -8.2 17.3
17:35 1015 29.97 844 24.92 7.3 45.1 33 -8.1 17.4
17:40 1015 29.97 844 24.92 7.2 45 34 -7.8 18
17:45 1015 29.97 844 24.92 7.3 45.1 33 -7.9 17.8
17:50 1015 29.97 844 24.92 7.3 45.1 34 -7.6 18.4
17:55 1015 29.97 844 24.92 7.2 44.9 35 -7.3 18.9
18:00 1015 29.97 844 24.92 7.2 44.9 34 -7.6 18.3
18:05 1015 29.97 844 24.92 7.1 44.8 34 -7.6 18.2
18:10 1015 29.97 844 24.92 7.1 44.7 34 -7.6 18.4
18:15 1015 29.97 844 24.92 7.1 44.7 34 -7.7 18.1
18:20 1015 29.97 844 24.92 7.2 45 34 -7.8 17.9
18:25 1014 29.94 844 24.92 7.2 45 34 -7.5 18.4
18:30 1014 29.94 844 24.92 7.2 44.9 34 -7.7 18.2
18:35 1014 29.94 844 24.92 7 44.6 35 -7.3 18.8
18:40 1014 29.94 843 24.89 6.7 44.1 35 -7.6 18.4
18:45 1014 29.94 843 24.89 6.7 44 35 -7.9 17.8
18:50 1014 29.94 843 24.89 6.5 43.7 35 -8 17.6
18:55 1014 29.94 843 24.89 6.6 43.9 33 -8.5 16.6
19:00 1014 29.94 843 24.89 6.7 44.1 34 -8.1 17.5
19:05 1014 29.94 843 24.89 6.5 43.7 36 -7.4 18.6
19:10 1014 29.94 843 24.89 6.4 43.5 34 -8.3 17.1
19:15 1014 29.94 843 24.89 6.4 43.5 34 -8.2 17.2
19:20 1014 29.94 843 24.89 6.3 43.3 37 -7.2 19
19:25 1014 29.94 843 24.89 6.1 43 37 -7.6 18.2
19:30 1014 29.94 843 24.89 6.3 43.3 38 -7.2 19.1
19:35 1014 29.94 843 24.89 6.3 43.3 38 -7.1 19.1
19:40 1014 29.94 843 24.89 6 42.8 38 -7.2 19.1
19:45 1014 29.94 843 24.89 5.8 42.4 40 -6.7 19.9
19:50 1014 29.94 843 24.89 5.7 42.3 41 -6.6 20.2
19:55 1014 29.94 843 24.89 5.8 42.5 42 -6 21.2
20:00 1014 29.94 843 24.89 5.8 42.5 43 -5.9 21.4
20:05 1014 29.94 843 24.89 5.8 42.5 43 -5.9 21.4
20:10 1014 29.94 843 24.89 5.9 42.5 43 -5.7 21.7
20:15 1014 29.94 843 24.89 6 42.8 42 -6 21.2
20:20 1014 29.94 843 24.89 6.1 43 41 -6.1 21.1
20:25 1014 29.94 843 24.89 6.4 43.5 41 -6.1 21.1
20:30 1014 29.94 843 24.89 6.5 43.7 41 -5.7 21.8
20:35 1014 29.94 843 24.89 6.3 43.4 44 -5.2 22.7
20:40 1014 29.94 843 24.89 6 42.9 45 -5.1 22.8
20:45 1014 29.94 843 24.89 5.9 42.6 45 -5 22.9
20:50 1014 29.94 843 24.89 5.8 42.5 45 -5.1 22.9
20:55 1014 29.94 843 24.89 5.9 42.6 45 -5.1 22.9
21:00 1014 29.94 843 24.89 5.9 42.6 45 -5 23
21:05 1014 29.94 843 24.89 5.8 42.4 47 -4.7 23.6
21:10 1014 29.94 843 24.89 5.6 42.1 48 -4.6 23.7
21:15 1014 29.94 843 24.89 5.5 41.9 47 -5 23.1
21:20 1014 29.94 843 24.89 5.6 42.1 46 -5 22.9
21:25 1014 29.94 843 24.89 5.8 42.5 44 -5.5 22.2
21:30 1014 29.94 843 24.89 6.1 43 45 -5.1 22.9
21:35 1014 29.94 843 24.89 6 42.8 46 -4.8 23.4
21:40 1014 29.94 843 24.89 5.8 42.5 48 -4.4 24.1
21:45 1014 29.94 843 24.89 5.4 41.7 49 -4.5 23.9
21:50 1014 29.94 843 24.89 5.2 41.3 50 -4.4 24.1
21:55 1014 29.94 843 24.89 5.1 41.2 50 -4.4 24.1
22:00 1014 29.94 843 24.89 5.2 41.3 51 -4.3 24.3
22:05 1014 29.94 843 24.89 5 41.1 50 -4.7 23.6
22:10 1014 29.94 843 24.89 5.1 41.3 49 -4.6 23.6
22:15 1014 29.94 843 24.89 5.3 41.5 46 -5.4 22.3
22:20 1014 29.94 843 24.89 5.4 41.8 50 -4.1 24.7
22:25 1014 29.94 843 24.89 4.8 40.7 51 -4.5 23.9
22:30 1014 29.94 843 24.89 5.3 41.5 48 -4.8 23.3
22:35 1014 29.94 843 24.89 5.4 41.8 48 -4.7 23.6
22:40 1014 29.94 843 24.89 5.4 41.7 49 -4.6 23.7
22:45 1014 29.94 843 24.89 5.4 41.7 48 -4.8 23.4
22:50 1014 29.94 843 24.89 5.6 42.1 46 -5 23
22:55 1014 29.94 843 24.89 6.3 43.4 42 -5.6 21.9
23:00 1014 29.94 843 24.89 6.7 44 42 -5.4 22.3
23:05 1014 29.94 843 24.89 6.6 43.9 42 -5.4 22.3
23:10 1014 29.94 843 24.89 6.6 43.9 41 -5.6 21.9
23:15 1014 29.94 843 24.89 6.5 43.7 42 -5.6 22
23:20 1014 29.94 843 24.89 6.6 43.9 43 -5.2 22.7
23:25 1014 29.94 843 24.89 6.9 44.5 42 -5 23.1
23:30 1014 29.94 843 24.89 6.7 44.1 43 -4.9 23.2
23:35 1014 29.94 843 24.89 6.8 44.2 43 -4.8 23.4
23:40 1014 29.94 843 24.89 6.8 44.3 43 -4.9 23.3
23:45 1014 29.94 843 24.89 7.2 45 43 -4.5 23.9
23:50 1014 29.94 843 24.89 7.2 44.9 42 -4.7 23.5
23:55 1014 29.94 843 24.89 7.3 45.2 43 -4.6 23.8
24:00 1014 29.94 843 24.89 7.4 45.3 43 -4.4 24